sensor_id;sensor_type;location;lat;lon;timestamp;pressure;altitude;pressure_sealevel;temperature;humidity
46778;BME280;32536;47.128;8.746;2023-04-26T00:00:28;91540.41;;;8.91;53.97
46778;BME280;32536;47.128;8.746;2023-04-26T00:02:55;91545.38;;;8.92;53.95
46778;BME280;32536;47.128;8.746;2023-04-26T00:05:24;91549.56;;;8.90;54.39
46778;BME280;32536;47.128;8.746;2023-04-26T00:07:51;91549.97;;;8.88;53.83
46778;BME280;32536;47.128;8.746;2023-04-26T00:10:19;91548.09;;;8.85;53.96
46778;BME280;32536;47.128;8.746;2023-04-26T00:12:45;91551.94;;;8.84;53.82
46778;BME280;32536;47.128;8.746;2023-04-26T00:15:12;91554.97;;;8.86;54.11
46778;BME280;32536;47.128;8.746;2023-04-26T00:17:39;91549.97;;;8.88;54.36
46778;BME280;32536;47.128;8.746;2023-04-26T00:20:06;91549.19;;;8.91;54.08
46778;BME280;32536;47.128;8.746;2023-04-26T00:22:35;91556.06;;;8.92;54.24
46778;BME280;32536;47.128;8.746;2023-04-26T00:25:02;91549.53;;;8.93;54.40
46778;BME280;32536;47.128;8.746;2023-04-26T00:27:29;91554.09;;;8.96;54.59
46778;BME280;32536;47.128;8.746;2023-04-26T00:29:56;91555.59;;;9.01;53.95
46778;BME280;32536;47.128;8.746;2023-04-26T00:32:23;91558.63;;;9.03;54.25
46778;BME280;32536;47.128;8.746;2023-04-26T00:34:50;91559.72;;;9.09;54.08
46778;BME280;32536;47.128;8.746;2023-04-26T00:37:16;91547.81;;;9.14;54.07
46778;BME280;32536;47.128;8.746;2023-04-26T00:39:43;91550.84;;;9.20;53.86
46778;BME280;32536;47.128;8.746;2023-04-26T00:42:10;91551.16;;;9.25;53.93
46778;BME280;32536;47.128;8.746;2023-04-26T00:44:36;91551.16;;;9.25;53.76
46778;BME280;32536;47.128;8.746;2023-04-26T00:47:05;91553.84;;;9.25;54.13
46778;BME280;32536;47.128;8.746;2023-04-26T00:49:32;91557.34;;;9.19;54.06
46778;BME280;32536;47.128;8.746;2023-04-26T00:51:59;91553.97;;;9.11;53.87
46778;BME280;32536;47.128;8.746;2023-04-26T00:54:25;91556.28;;;9.09;53.49
46778;BME280;32536;47.128;8.746;2023-04-26T00:56:53;91555.13;;;9.10;53.58
46778;BME280;32536;47.128;8.746;2023-04-26T00:59:20;91548.25;;;9.09;53.42
46778;BME280;32536;47.128;8.746;2023-04-26T01:01:46;91550.19;;;9.08;53.28
46778;BME280;32536;47.128;8.746;2023-04-26T01:04:14;91551.75;;;9.06;53.51
46778;BME280;32536;47.128;8.746;2023-04-26T01:06:41;91556.72;;;9.04;53.88
46778;BME280;32536;47.128;8.746;2023-04-26T01:09:08;91556.34;;;9.02;53.60
46778;BME280;32536;47.128;8.746;2023-04-26T01:11:36;91550.66;;;9.00;53.63
46778;BME280;32536;47.128;8.746;2023-04-26T01:14:04;91554.47;;;8.99;54.05
46778;BME280;32536;47.128;8.746;2023-04-26T01:16:31;91554.47;;;8.99;53.84
46778;BME280;32536;47.128;8.746;2023-04-26T01:19:06;91546.84;;;8.97;54.31
46778;BME280;32536;47.128;8.746;2023-04-26T01:21:35;91547.22;;;8.99;53.75
46778;BME280;32536;47.128;8.746;2023-04-26T01:24:02;91536.13;;;9.01;53.62
46778;BME280;32536;47.128;8.746;2023-04-26T01:26:29;91541.09;;;9.02;53.41
46778;BME280;32536;47.128;8.746;2023-04-26T01:28:57;91537.63;;;9.02;53.73
46778;BME280;32536;47.128;8.746;2023-04-26T01:31:24;91536.53;;;8.99;53.99
46778;BME280;32536;47.128;8.746;2023-04-26T01:33:51;91544.16;;;8.97;53.75
46778;BME280;32536;47.128;8.746;2023-04-26T01:36:17;91537.31;;;8.96;53.55
46778;BME280;32536;47.128;8.746;2023-04-26T01:38:44;91540.72;;;9.00;53.65
46778;BME280;32536;47.128;8.746;2023-04-26T01:41:11;91539.91;;;9.03;53.45
46778;BME280;32536;47.128;8.746;2023-04-26T01:43:37;91539.16;;;9.03;53.45
46778;BME280;32536;47.128;8.746;2023-04-26T01:46:04;91532.34;;;8.94;53.38
46778;BME280;32536;47.128;8.746;2023-04-26T01:48:31;91527.09;;;8.87;53.77
46778;BME280;32536;47.128;8.746;2023-04-26T01:50:58;91535.13;;;8.84;53.62
46778;BME280;32536;47.128;8.746;2023-04-26T01:53:24;91532.84;;;8.82;53.43
46778;BME280;32536;47.128;8.746;2023-04-26T01:55:51;91531.75;;;8.79;53.68
46778;BME280;32536;47.128;8.746;2023-04-26T01:58:20;91532.47;;;8.80;53.38
46778;BME280;32536;47.128;8.746;2023-04-26T02:00:46;91531.38;;;8.77;53.71
46778;BME280;32536;47.128;8.746;2023-04-26T02:03:13;91528.69;;;8.77;53.55
46778;BME280;32536;47.128;8.746;2023-04-26T02:05:40;91527.91;;;8.80;53.27
46778;BME280;32536;47.128;8.746;2023-04-26T02:08:06;91525.63;;;8.83;53.70
46778;BME280;32536;47.128;8.746;2023-04-26T02:10:33;91525.63;;;8.83;53.61
46778;BME280;32536;47.128;8.746;2023-04-26T02:13:00;91517.19;;;8.84;53.50
46778;BME280;32536;47.128;8.746;2023-04-26T02:15:27;91522.16;;;8.86;52.90
46778;BME280;32536;47.128;8.746;2023-04-26T02:17:54;91521.00;;;8.87;53.29
46778;BME280;32536;47.128;8.746;2023-04-26T02:20:20;91511.47;;;8.86;52.96
46778;BME280;32536;47.128;8.746;2023-04-26T02:22:47;91511.47;;;8.86;53.20
46778;BME280;32536;47.128;8.746;2023-04-26T02:25:14;91506.56;;;8.80;53.04
46778;BME280;32536;47.128;8.746;2023-04-26T02:27:41;91503.91;;;8.77;53.05
46778;BME280;32536;47.128;8.746;2023-04-26T02:30:08;91508.09;;;8.78;53.45
46778;BME280;32536;47.128;8.746;2023-04-26T02:32:35;91513.03;;;8.79;53.54
46778;BME280;32536;47.128;8.746;2023-04-26T02:35:01;91512.63;;;8.81;53.26
46778;BME280;32536;47.128;8.746;2023-04-26T02:37:31;91513.03;;;8.79;53.17
46778;BME280;32536;47.128;8.746;2023-04-26T02:42:44;91506.16;;;8.82;52.72
46778;BME280;32536;47.128;8.746;2023-04-26T02:45:11;91511.13;;;8.80;53.04
46778;BME280;32536;47.128;8.746;2023-04-26T02:47:38;91515.78;;;8.72;52.88
46778;BME280;32536;47.128;8.746;2023-04-26T02:50:05;91516.22;;;8.63;52.50
46778;BME280;32536;47.128;8.746;2023-04-26T02:52:34;91507.88;;;8.58;52.79
46778;BME280;32536;47.128;8.746;2023-04-26T02:55:04;91514.06;;;8.51;52.84
46778;BME280;32536;47.128;8.746;2023-04-26T02:57:32;91511.41;;;8.44;52.65
46778;BME280;32536;47.128;8.746;2023-04-26T02:59:58;91508.75;;;8.40;52.60
46778;BME280;32536;47.128;8.746;2023-04-26T03:02:25;91506.16;;;8.33;52.47
46778;BME280;32536;47.128;8.746;2023-04-26T03:04:52;91503.94;;;8.24;53.17
46778;BME280;32536;47.128;8.746;2023-04-26T03:07:20;91507.03;;;8.19;52.89
46778;BME280;32536;47.128;8.746;2023-04-26T03:09:47;91512.72;;;8.17;52.92
46778;BME280;32536;47.128;8.746;2023-04-26T03:12:14;91510.47;;;8.16;52.95
46778;BME280;32536;47.128;8.746;2023-04-26T03:14:41;91512.00;;;8.13;53.24
46778;BME280;32536;47.128;8.746;2023-04-26T03:17:07;91505.53;;;8.11;53.35
46778;BME280;32536;47.128;8.746;2023-04-26T03:19:34;91510.13;;;8.07;53.13
46778;BME280;32536;47.128;8.746;2023-04-26T03:22:01;91504.03;;;8.06;53.19
46778;BME280;32536;47.128;8.746;2023-04-26T03:24:27;91510.13;;;8.07;53.63
46778;BME280;32536;47.128;8.746;2023-04-26T03:26:54;91506.72;;;8.06;53.69
46778;BME280;32536;47.128;8.746;2023-04-26T03:29:42;91512.81;;;8.03;54.10
46778;BME280;32536;47.128;8.746;2023-04-26T03:32:09;91506.34;;;8.04;53.54
46778;BME280;32536;47.128;8.746;2023-04-26T03:34:36;91505.56;;;8.07;53.25
46778;BME280;32536;47.128;8.746;2023-04-26T03:37:03;91514.28;;;8.11;53.68
46778;BME280;32536;47.128;8.746;2023-04-26T03:39:30;91511.59;;;8.15;52.83
46778;BME280;32536;47.128;8.746;2023-04-26T03:41:56;91518.06;;;8.17;53.02
46778;BME280;32536;47.128;8.746;2023-04-26T03:44:23;91514.66;;;8.17;53.49
46778;BME280;32536;47.128;8.746;2023-04-26T03:46:50;91518.47;;;8.16;53.76
46778;BME280;32536;47.128;8.746;2023-04-26T03:49:16;91515.41;;;8.14;53.85
46778;BME280;32536;47.128;8.746;2023-04-26T03:51:43;91512.75;;;8.14;54.14
46778;BME280;32536;47.128;8.746;2023-04-26T03:54:10;91510.84;;;8.18;53.83
46778;BME280;32536;47.128;8.746;2023-04-26T03:56:37;91510.78;;;8.25;54.09
46778;BME280;32536;47.128;8.746;2023-04-26T03:59:04;91507.69;;;8.30;53.63
46778;BME280;32536;47.128;8.746;2023-04-26T04:01:31;91513.41;;;8.32;53.92
46778;BME280;32536;47.128;8.746;2023-04-26T04:03:58;91497.75;;;8.31;53.60
46778;BME280;32536;47.128;8.746;2023-04-26T04:06:25;91499.69;;;8.30;53.68
46778;BME280;32536;47.128;8.746;2023-04-26T04:08:52;91497.75;;;8.31;53.69
46778;BME280;32536;47.128;8.746;2023-04-26T04:11:19;91501.56;;;8.33;53.77
46778;BME280;32536;47.128;8.746;2023-04-26T04:13:46;91494.28;;;8.38;53.37
46778;BME280;32536;47.128;8.746;2023-04-26T04:16:12;91495.00;;;8.42;53.98
46778;BME280;32536;47.128;8.746;2023-04-26T04:18:39;91499.97;;;8.47;53.59
46778;BME280;32536;47.128;8.746;2023-04-26T04:21:06;91494.25;;;8.45;54.01
46778;BME280;32536;47.128;8.746;2023-04-26T04:23:33;91493.47;;;8.44;53.93
46778;BME280;32536;47.128;8.746;2023-04-26T04:25:59;91501.09;;;8.46;53.94
46778;BME280;32536;47.128;8.746;2023-04-26T04:28:26;91503.78;;;8.46;53.78
46778;BME280;32536;47.128;8.746;2023-04-26T04:30:54;91498.06;;;8.44;53.78
46778;BME280;32536;47.128;8.746;2023-04-26T04:33:21;91493.09;;;8.46;54.18
46778;BME280;32536;47.128;8.746;2023-04-26T04:35:50;91499.94;;;8.51;54.38
46778;BME280;32536;47.128;8.746;2023-04-26T04:38:17;91494.19;;;8.56;53.90
46778;BME280;32536;47.128;8.746;2023-04-26T04:40:46;91488.78;;;8.63;54.05
46778;BME280;32536;47.128;8.746;2023-04-26T04:43:14;91490.63;;;8.70;53.82
46778;BME280;32536;47.128;8.746;2023-04-26T04:45:42;91482.97;;;8.72;53.55
46778;BME280;32536;47.128;8.746;2023-04-26T04:48:09;91484.09;;;8.74;53.62
46778;BME280;32536;47.128;8.746;2023-04-26T04:50:37;91487.16;;;8.73;53.27
46778;BME280;32536;47.128;8.746;2023-04-26T04:53:04;91491.34;;;8.74;53.29
46778;BME280;32536;47.128;8.746;2023-04-26T04:55:31;91487.16;;;8.73;53.18
46778;BME280;32536;47.128;8.746;2023-04-26T04:57:58;91491.00;;;8.72;53.38
46778;BME280;32536;47.128;8.746;2023-04-26T05:00:25;91494.03;;;8.70;53.49
46778;BME280;32536;47.128;8.746;2023-04-26T05:02:52;91500.91;;;8.71;53.39
46778;BME280;32536;47.128;8.746;2023-04-26T05:05:19;91498.59;;;8.73;53.31
46778;BME280;32536;47.128;8.746;2023-04-26T05:07:45;91500.53;;;8.73;53.11
46778;BME280;32536;47.128;8.746;2023-04-26T05:10:12;91499.75;;;8.72;53.36
46778;BME280;32536;47.128;8.746;2023-04-26T05:12:39;91495.94;;;8.73;53.19
46778;BME280;32536;47.128;8.746;2023-04-26T05:15:06;91500.53;;;8.73;53.18
46778;BME280;32536;47.128;8.746;2023-04-26T05:17:34;91508.13;;;8.74;53.42
46778;BME280;32536;47.128;8.746;2023-04-26T05:20:00;91501.28;;;8.73;53.10
46778;BME280;32536;47.128;8.746;2023-04-26T05:22:31;91505.88;;;8.73;53.45
46778;BME280;32536;47.128;8.746;2023-04-26T05:24:59;91510.03;;;8.74;53.39
46778;BME280;32536;47.128;8.746;2023-04-26T05:27:27;91513.47;;;8.74;53.62
46778;BME280;32536;47.128;8.746;2023-04-26T05:29:54;91516.91;;;8.75;53.17
46778;BME280;32536;47.128;8.746;2023-04-26T05:32:21;91519.53;;;8.78;53.12
46778;BME280;32536;47.128;8.746;2023-04-26T05:34:47;91524.47;;;8.80;53.44
46778;BME280;32536;47.128;8.746;2023-04-26T05:37:14;91516.09;;;8.81;53.34
46778;BME280;32536;47.128;8.746;2023-04-26T05:39:42;91519.13;;;8.80;53.57
46778;BME280;32536;47.128;8.746;2023-04-26T05:42:08;91519.53;;;8.78;53.82
46778;BME280;32536;47.128;8.746;2023-04-26T05:44:35;91518.38;;;8.79;53.73
46778;BME280;32536;47.128;8.746;2023-04-26T05:47:02;91519.50;;;8.82;53.93
46778;BME280;32536;47.128;8.746;2023-04-26T05:49:29;91513.38;;;8.85;53.51
46778;BME280;32536;47.128;8.746;2023-04-26T05:51:58;91519.44;;;8.89;54.27
46778;BME280;32536;47.128;8.746;2023-04-26T05:54:25;91516.38;;;8.91;53.88
46778;BME280;32536;47.128;8.746;2023-04-26T05:56:52;91509.50;;;8.90;53.83
46778;BME280;32536;47.128;8.746;2023-04-26T05:59:18;91509.91;;;8.88;53.81
46778;BME280;32536;47.128;8.746;2023-04-26T06:01:45;91511.50;;;8.82;54.26
46778;BME280;32536;47.128;8.746;2023-04-26T06:04:12;91512.34;;;8.72;54.65
46778;BME280;32536;47.128;8.746;2023-04-26T06:06:39;91515.06;;;8.68;54.53
46778;BME280;32536;47.128;8.746;2023-04-26T06:09:06;91521.16;;;8.65;54.94
46778;BME280;32536;47.128;8.746;2023-04-26T06:11:33;91524.25;;;8.63;54.40
46778;BME280;32536;47.128;8.746;2023-04-26T06:13:59;91526.16;;;8.63;54.84
46778;BME280;32536;47.128;8.746;2023-04-26T06:16:26;91524.22;;;8.67;54.73
46778;BME280;32536;47.128;8.746;2023-04-26T06:18:53;91522.25;;;8.71;54.93
46778;BME280;32536;47.128;8.746;2023-04-26T06:21:19;91526.41;;;8.79;54.47
46778;BME280;32536;47.128;8.746;2023-04-26T06:23:46;91533.22;;;8.84;54.52
46778;BME280;32536;47.128;8.746;2023-04-26T06:26:13;91530.50;;;8.91;54.22
46778;BME280;32536;47.128;8.746;2023-04-26T06:28:40;91527.34;;;9.00;54.33
46778;BME280;32536;47.128;8.746;2023-04-26T06:31:06;91527.25;;;9.11;54.31
46778;BME280;32536;47.128;8.746;2023-04-26T06:33:33;91529.81;;;9.22;54.55
46778;BME280;32536;47.128;8.746;2023-04-26T06:36:00;91529.31;;;9.34;54.64
46778;BME280;32536;47.128;8.746;2023-04-26T06:38:26;91531.91;;;9.41;53.97
46778;BME280;32536;47.128;8.746;2023-04-26T06:40:53;91531.41;;;9.50;54.35
46778;BME280;32536;47.128;8.746;2023-04-26T06:43:20;91532.09;;;9.58;54.13
46778;BME280;32536;47.128;8.746;2023-04-26T06:45:46;91533.53;;;9.66;54.34
46778;BME280;32536;47.128;8.746;2023-04-26T06:48:13;91537.22;;;9.76;54.43
46778;BME280;32536;47.128;8.746;2023-04-26T06:50:40;91534.41;;;9.87;54.25
46778;BME280;32536;47.128;8.746;2023-04-26T06:53:07;91526.25;;;9.98;54.46
46778;BME280;32536;47.128;8.746;2023-04-26T06:55:33;91523.50;;;10.05;54.19
46778;BME280;32536;47.128;8.746;2023-04-26T06:58:00;91536.06;;;10.08;54.62
46778;BME280;32536;47.128;8.746;2023-04-26T07:00:27;91522.97;;;10.14;54.37
46778;BME280;32536;47.128;8.746;2023-04-26T07:02:54;91523.34;;;10.16;54.63
46778;BME280;32536;47.128;8.746;2023-04-26T07:05:21;91527.94;;;10.15;54.21
46778;BME280;32536;47.128;8.746;2023-04-26T07:07:48;91527.53;;;10.17;54.28
46778;BME280;32536;47.128;8.746;2023-04-26T07:10:15;91525.63;;;10.17;54.29
46778;BME280;32536;47.128;8.746;2023-04-26T07:12:41;91524.88;;;10.17;54.20
46778;BME280;32536;47.128;8.746;2023-04-26T07:15:08;91524.78;;;10.20;54.34
46778;BME280;32536;47.128;8.746;2023-04-26T07:17:35;91520.97;;;10.21;54.40
46778;BME280;32536;47.128;8.746;2023-04-26T07:20:02;91511.34;;;10.24;54.30
46778;BME280;32536;47.128;8.746;2023-04-26T07:22:30;91521.69;;;10.25;54.50
46778;BME280;32536;47.128;8.746;2023-04-26T07:24:57;91515.97;;;10.23;54.90
46778;BME280;32536;47.128;8.746;2023-04-26T07:27:23;91514.81;;;10.24;54.64
46778;BME280;32536;47.128;8.746;2023-04-26T07:29:57;91518.13;;;10.32;54.28
46778;BME280;32536;47.128;8.746;2023-04-26T07:32:24;91513.41;;;10.44;54.28
46778;BME280;32536;47.128;8.746;2023-04-26T07:34:51;91510.66;;;10.47;54.21
46778;BME280;32536;47.128;8.746;2023-04-26T07:37:18;91506.50;;;10.46;53.99
46778;BME280;32536;47.128;8.746;2023-04-26T07:39:44;91508.75;;;10.48;54.18
46778;BME280;32536;47.128;8.746;2023-04-26T07:42:11;91506.44;;;10.50;54.08
46778;BME280;32536;47.128;8.746;2023-04-26T07:44:38;91506.44;;;10.50;54.07
46778;BME280;32536;47.128;8.746;2023-04-26T07:47:10;91507.19;;;10.50;54.17
46778;BME280;32536;47.128;8.746;2023-04-26T07:49:38;91507.81;;;10.58;54.01
46778;BME280;32536;47.128;8.746;2023-04-26T07:52:04;91515.34;;;10.67;54.03
46778;BME280;32536;47.128;8.746;2023-04-26T07:54:32;91514.16;;;10.68;53.48
46778;BME280;32536;47.128;8.746;2023-04-26T07:56:59;91521.03;;;10.69;53.79
46778;BME280;32536;47.128;8.746;2023-04-26T07:59:26;91512.59;;;10.70;54.33
46778;BME280;32536;47.128;8.746;2023-04-26T08:01:53;91506.50;;;10.70;53.85
46778;BME280;32536;47.128;8.746;2023-04-26T08:04:31;91508.75;;;10.71;54.36
46778;BME280;32536;47.128;8.746;2023-04-26T08:06:59;91512.94;;;10.72;54.26
46778;BME280;32536;47.128;8.746;2023-04-26T08:09:29;91505.75;;;10.69;54.04
46778;BME280;32536;47.128;8.746;2023-04-26T08:11:56;91506.50;;;10.70;54.08
46778;BME280;32536;47.128;8.746;2023-04-26T08:14:23;91502.94;;;10.77;54.08
46778;BME280;32536;47.128;8.746;2023-04-26T08:16:50;91503.56;;;10.84;53.71
46778;BME280;32536;47.128;8.746;2023-04-26T08:19:17;91500.00;;;10.91;53.80
46778;BME280;32536;47.128;8.746;2023-04-26T08:21:43;91500.34;;;10.93;53.56
46778;BME280;32536;47.128;8.746;2023-04-26T08:24:10;91493.38;;;10.99;53.48
46778;BME280;32536;47.128;8.746;2023-04-26T08:26:37;91498.25;;;11.04;53.53
46778;BME280;32536;47.128;8.746;2023-04-26T08:29:03;91502.72;;;11.11;53.51
46778;BME280;32536;47.128;8.746;2023-04-26T08:31:31;91488.91;;;11.13;53.29
46778;BME280;32536;47.128;8.746;2023-04-26T08:33:57;91484.31;;;11.13;52.39
46778;BME280;32536;47.128;8.746;2023-04-26T08:36:24;91491.16;;;11.14;52.91
46778;BME280;32536;47.128;8.746;2023-04-26T08:38:51;91491.81;;;11.22;53.30
46778;BME280;32536;47.128;8.746;2023-04-26T08:41:21;91487.06;;;11.30;53.26
46778;BME280;32536;47.128;8.746;2023-04-26T08:43:49;91497.94;;;11.43;53.15
46778;BME280;32536;47.128;8.746;2023-04-26T08:46:18;91493.75;;;11.42;52.63
46778;BME280;32536;47.128;8.746;2023-04-26T08:48:48;91496.16;;;11.36;52.46
46778;BME280;32536;47.128;8.746;2023-04-26T08:51:25;91495.03;;;11.33;53.62
46778;BME280;32536;47.128;8.746;2023-04-26T08:53:54;91495.41;;;11.35;53.20
46778;BME280;32536;47.128;8.746;2023-04-26T08:56:23;91495.81;;;11.34;53.01
46778;BME280;32536;47.128;8.746;2023-04-26T08:58:51;91495.88;;;11.30;52.78
46778;BME280;32536;47.128;8.746;2023-04-26T09:01:18;91504.00;;;11.27;52.55
46778;BME280;32536;47.128;8.746;2023-04-26T09:03:46;91503.22;;;11.26;52.85
46778;BME280;32536;47.128;8.746;2023-04-26T09:06:13;91511.28;;;11.26;52.75
46778;BME280;32536;47.128;8.746;2023-04-26T09:08:41;91508.22;;;11.24;52.51
46778;BME280;32536;47.128;8.746;2023-04-26T09:11:08;91507.50;;;11.24;52.84
46778;BME280;32536;47.128;8.746;2023-04-26T09:13:35;91508.53;;;11.30;53.16
46778;BME280;32536;47.128;8.746;2023-04-26T09:16:02;91511.06;;;11.37;52.94
46778;BME280;32536;47.128;8.746;2023-04-26T09:18:29;91510.94;;;11.44;52.85
46778;BME280;32536;47.128;8.746;2023-04-26T09:21:05;91508.53;;;11.50;52.82
46778;BME280;32536;47.128;8.746;2023-04-26T09:23:33;91508.13;;;11.51;53.31
46778;BME280;32536;47.128;8.746;2023-04-26T09:26:19;91506.19;;;11.52;52.96
46778;BME280;32536;47.128;8.746;2023-04-26T09:28:47;91512.47;;;11.45;53.32
46778;BME280;32536;47.128;8.746;2023-04-26T09:31:37;91515.22;;;11.42;52.91
46778;BME280;32536;47.128;8.746;2023-04-26T09:34:05;91518.03;;;11.34;52.89
46778;BME280;32536;47.128;8.746;2023-04-26T09:36:48;91513.13;;;11.29;52.81
46778;BME280;32536;47.128;8.746;2023-04-26T09:39:37;91510.66;;;11.38;53.03
46778;BME280;32536;47.128;8.746;2023-04-26T09:42:06;91515.06;;;11.49;53.10
46778;BME280;32536;47.128;8.746;2023-04-26T09:44:33;91516.84;;;11.56;52.88
46778;BME280;32536;47.128;8.746;2023-04-26T09:47:08;91512.50;;;11.62;52.38
46778;BME280;32536;47.128;8.746;2023-04-26T09:52:13;91524.84;;;11.79;52.65
46778;BME280;32536;47.128;8.746;2023-04-26T09:54:48;91529.72;;;11.84;51.96
46778;BME280;32536;47.128;8.746;2023-04-26T09:57:17;91516.56;;;11.90;52.53
46778;BME280;32536;47.128;8.746;2023-04-26T09:59:46;91517.25;;;11.94;52.19
46778;BME280;32536;47.128;8.746;2023-04-26T10:02:15;91513.00;;;11.97;52.67
46778;BME280;32536;47.128;8.746;2023-04-26T10:04:51;91519.88;;;11.98;52.20
46778;BME280;32536;47.128;8.746;2023-04-26T10:07:20;91516.03;;;11.99;52.63
46778;BME280;32536;47.128;8.746;2023-04-26T10:09:49;91517.88;;;12.02;52.53
46778;BME280;32536;47.128;8.746;2023-04-26T10:12:18;91510.59;;;12.03;52.29
46778;BME280;32536;47.128;8.746;2023-04-26T10:14:45;91509.75;;;12.06;52.64
46778;BME280;32536;47.128;8.746;2023-04-26T10:17:13;91506.97;;;12.09;51.91
46778;BME280;32536;47.128;8.746;2023-04-26T10:19:41;91511.25;;;12.07;51.99
46778;BME280;32536;47.128;8.746;2023-04-26T10:22:14;91512.09;;;12.04;52.39
46778;BME280;32536;47.128;8.746;2023-04-26T10:24:44;91521.81;;;11.97;52.42
46778;BME280;32536;47.128;8.746;2023-04-26T10:27:11;91515.72;;;11.93;52.35
46778;BME280;32536;47.128;8.746;2023-04-26T10:30:10;91513.81;;;11.94;51.89
46778;BME280;32536;47.128;8.746;2023-04-26T10:35:26;91504.28;;;12.09;52.17
46778;BME280;32536;47.128;8.746;2023-04-26T10:40:27;91502.09;;;12.04;51.67
46778;BME280;32536;47.128;8.746;2023-04-26T10:45:38;91500.72;;;11.96;51.88
46778;BME280;32536;47.128;8.746;2023-04-26T10:53:29;91486.00;;;12.04;51.80
46778;BME280;32536;47.128;8.746;2023-04-26T10:55:57;91488.19;;;12.09;52.30
46778;BME280;32536;47.128;8.746;2023-04-26T10:58:33;91487.78;;;12.11;51.72
46778;BME280;32536;47.128;8.746;2023-04-26T11:01:17;91490.47;;;12.11;51.41
46778;BME280;32536;47.128;8.746;2023-04-26T11:06:24;91479.53;;;12.18;51.93
46778;BME280;32536;47.128;8.746;2023-04-26T11:08:54;91476.72;;;12.25;52.17
46778;BME280;32536;47.128;8.746;2023-04-26T11:11:25;91484.94;;;12.35;51.36
46778;BME280;32536;47.128;8.746;2023-04-26T11:13:54;91477.38;;;12.46;52.15
46778;BME280;32536;47.128;8.746;2023-04-26T11:16:22;91472.94;;;12.56;52.05
46778;BME280;32536;47.128;8.746;2023-04-26T11:18:53;91469.66;;;12.64;51.93
46778;BME280;32536;47.128;8.746;2023-04-26T11:21:20;91462.78;;;12.63;51.60
46778;BME280;32536;47.128;8.746;2023-04-26T11:23:53;91465.06;;;12.65;51.47
46778;BME280;32536;47.128;8.746;2023-04-26T11:26:20;91469.09;;;12.73;51.43
46778;BME280;32536;47.128;8.746;2023-04-26T11:28:47;91473.50;;;12.80;51.57
46778;BME280;32536;47.128;8.746;2023-04-26T11:31:14;91469.47;;;12.88;51.57
46778;BME280;32536;47.128;8.746;2023-04-26T11:33:44;91468.13;;;12.96;51.53
46778;BME280;32536;47.128;8.746;2023-04-26T11:36:11;91470.22;;;13.05;51.63
46778;BME280;32536;47.128;8.746;2023-04-26T11:38:38;91467.34;;;13.12;51.22
46778;BME280;32536;47.128;8.746;2023-04-26T11:41:04;91470.25;;;13.18;51.14
46778;BME280;32536;47.128;8.746;2023-04-26T11:46:02;91476.22;;;13.26;51.26
46778;BME280;32536;47.128;8.746;2023-04-26T11:48:30;91465.75;;;13.28;51.12
46778;BME280;32536;47.128;8.746;2023-04-26T11:50:59;91468.34;;;13.32;51.38
46778;BME280;32536;47.128;8.746;2023-04-26T11:53:38;91465.03;;;13.27;50.82
46778;BME280;32536;47.128;8.746;2023-04-26T11:58:47;91466.72;;;13.21;51.27
46778;BME280;32536;47.128;8.746;2023-04-26T12:01:22;91475.13;;;13.23;50.42
46778;BME280;32536;47.128;8.746;2023-04-26T12:03:53;91466.44;;;13.32;50.34
46778;BME280;32536;47.128;8.746;2023-04-26T12:06:34;91473.75;;;13.32;51.18
46778;BME280;32536;47.128;8.746;2023-04-26T12:09:07;91470.84;;;13.26;51.10
46778;BME280;32536;47.128;8.746;2023-04-26T12:11:36;91473.53;;;13.26;51.24
46778;BME280;32536;47.128;8.746;2023-04-26T12:14:03;91464.78;;;13.22;50.77
46778;BME280;32536;47.128;8.746;2023-04-26T12:16:30;91465.72;;;13.15;51.08
46778;BME280;32536;47.128;8.746;2023-04-26T12:18:57;91467.44;;;13.09;51.10
46778;BME280;32536;47.128;8.746;2023-04-26T12:21:24;91471.72;;;13.06;51.17
46778;BME280;32536;47.128;8.746;2023-04-26T12:23:52;91481.72;;;13.06;51.08
46778;BME280;32536;47.128;8.746;2023-04-26T12:26:18;91482.75;;;12.95;49.99
46778;BME280;32536;47.128;8.746;2023-04-26T12:28:45;91482.25;;;12.84;50.58
46778;BME280;32536;47.128;8.746;2023-04-26T12:31:12;91490.50;;;12.77;50.34
46778;BME280;32536;47.128;8.746;2023-04-26T12:33:39;91487.03;;;12.76;50.88
46778;BME280;32536;47.128;8.746;2023-04-26T12:36:10;91494.28;;;12.79;50.37
46778;BME280;32536;47.128;8.746;2023-04-26T12:38:38;91492.25;;;12.84;50.54
46778;BME280;32536;47.128;8.746;2023-04-26T12:41:05;91484.53;;;12.86;50.63
46778;BME280;32536;47.128;8.746;2023-04-26T12:43:31;91483.09;;;12.81;50.52
46778;BME280;32536;47.128;8.746;2023-04-26T12:45:59;91484.78;;;12.75;50.41
46778;BME280;32536;47.128;8.746;2023-04-26T12:48:26;91485.53;;;12.75;50.84
46778;BME280;32536;47.128;8.746;2023-04-26T12:50:53;91493.50;;;12.79;50.72
46778;BME280;32536;47.128;8.746;2023-04-26T12:53:20;91493.50;;;12.79;50.62
46778;BME280;32536;47.128;8.746;2023-04-26T12:55:47;91505.03;;;12.79;50.33
46778;BME280;32536;47.128;8.746;2023-04-26T12:58:14;91496.38;;;12.72;49.62
46778;BME280;32536;47.128;8.746;2023-04-26T13:00:40;91487.72;;;12.64;49.84
46778;BME280;32536;47.128;8.746;2023-04-26T13:03:07;91493.63;;;12.59;49.97
46778;BME280;32536;47.128;8.746;2023-04-26T13:05:35;91488.66;;;12.57;50.17
46778;BME280;32536;47.128;8.746;2023-04-26T13:08:02;91482.94;;;12.55;50.34
46778;BME280;32536;47.128;8.746;2023-04-26T13:10:29;91484.38;;;12.60;50.18
46778;BME280;32536;47.128;8.746;2023-04-26T13:12:57;91480.66;;;12.70;50.12
46778;BME280;32536;47.128;8.746;2023-04-26T13:15:24;91490.41;;;12.80;50.32
46778;BME280;32536;47.128;8.746;2023-04-26T13:17:52;91484.88;;;12.88;50.13
46778;BME280;32536;47.128;8.746;2023-04-26T13:20:19;91477.47;;;12.92;50.25
46778;BME280;32536;47.128;8.746;2023-04-26T13:22:46;91473.25;;;12.91;50.13
46778;BME280;32536;47.128;8.746;2023-04-26T13:25:12;91473.81;;;12.98;50.40
46778;BME280;32536;47.128;8.746;2023-04-26T13:27:40;91476.75;;;13.04;50.51
46778;BME280;32536;47.128;8.746;2023-04-26T13:30:20;91474.31;;;13.10;49.45
46778;BME280;32536;47.128;8.746;2023-04-26T13:32:46;91467.47;;;13.22;50.12
46778;BME280;32536;47.128;8.746;2023-04-26T13:35:13;91464.59;;;13.29;50.24